sensor_id;sensor_type;location;lat;lon;timestamp;temperature;humidity
51922;DHT22;37948;53.260;6.394;2023-01-10T00:02:00;4.80;99.90
51922;DHT22;37948;53.260;6.394;2023-01-10T00:04:25;4.70;99.90
51922;DHT22;37948;53.260;6.394;2023-01-10T00:06:51;4.70;99.90
51922;DHT22;37948;53.260;6.394;2023-01-10T00:09:17;4.60;99.90
51922;DHT22;37948;53.260;6.394;2023-01-10T00:11:43;4.60;99.90
51922;DHT22;37948;53.260;6.394;2023-01-10T00:14:27;4.50;99.90
51922;DHT22;37948;53.260;6.394;2023-01-10T00:16:54;4.50;99.90
51922;DHT22;37948;53.260;6.394;2023-01-10T00:19:20;4.40;99.90
51922;DHT22;37948;53.260;6.394;2023-01-10T00:21:46;4.50;99.90
51922;DHT22;37948;53.260;6.394;2023-01-10T00:24:11;4.50;99.90
51922;DHT22;37948;53.260;6.394;2023-01-10T00:26:49;4.60;99.90
51922;DHT22;37948;53.260;6.394;2023-01-10T00:29:19;4.60;99.90
51922;DHT22;37948;53.260;6.394;2023-01-10T00:31:45;4.70;99.90
51922;DHT22;37948;53.260;6.394;2023-01-10T00:34:10;4.80;99.90
51922;DHT22;37948;53.260;6.394;2023-01-10T00:36:36;4.80;99.90
51922;DHT22;37948;53.260;6.394;2023-01-10T00:39:02;4.80;99.90
51922;DHT22;37948;53.260;6.394;2023-01-10T00:41:28;4.80;99.90
51922;DHT22;37948;53.260;6.394;2023-01-10T00:44:12;4.80;99.90
51922;DHT22;37948;53.260;6.394;2023-01-10T00:46:37;4.90;99.90
51922;DHT22;37948;53.260;6.394;2023-01-10T00:49:03;4.90;99.90
51922;DHT22;37948;53.260;6.394;2023-01-10T00:51:36;4.90;99.90
51922;DHT22;37948;53.260;6.394;2023-01-10T00:54:02;4.90;99.90
51922;DHT22;37948;53.260;6.394;2023-01-10T00:56:28;5.00;99.90
51922;DHT22;37948;53.260;6.394;2023-01-10T00:58:54;5.10;99.90
51922;DHT22;37948;53.260;6.394;2023-01-10T01:01:19;5.10;99.90
51922;DHT22;37948;53.260;6.394;2023-01-10T01:03:45;5.20;99.90
51922;DHT22;37948;53.260;6.394;2023-01-10T01:06:10;5.20;99.90
51922;DHT22;37948;53.260;6.394;2023-01-10T01:08:36;5.30;99.90
51922;DHT22;37948;53.260;6.394;2023-01-10T01:11:01;5.30;99.90
51922;DHT22;37948;53.260;6.394;2023-01-10T01:13:27;5.30;99.90
51922;DHT22;37948;53.260;6.394;2023-01-10T01:15:56;5.40;99.90
51922;DHT22;37948;53.260;6.394;2023-01-10T01:18:22;5.40;99.90
51922;DHT22;37948;53.260;6.394;2023-01-10T01:20:52;5.40;99.90
51922;DHT22;37948;53.260;6.394;2023-01-10T01:23:18;5.40;99.90
51922;DHT22;37948;53.260;6.394;2023-01-10T01:25:43;5.30;99.90
51922;DHT22;37948;53.260;6.394;2023-01-10T01:28:11;5.30;99.90
51922;DHT22;37948;53.260;6.394;2023-01-10T01:30:37;5.30;99.90
51922;DHT22;37948;53.260;6.394;2023-01-10T01:33:03;5.30;99.90
51922;DHT22;37948;53.260;6.394;2023-01-10T01:35:29;5.30;99.90
51922;DHT22;37948;53.260;6.394;2023-01-10T01:37:54;5.40;99.90
51922;DHT22;37948;53.260;6.394;2023-01-10T01:40:21;5.30;99.90
51922;DHT22;37948;53.260;6.394;2023-01-10T01:42:48;5.40;99.90
51922;DHT22;37948;53.260;6.394;2023-01-10T01:47:44;5.40;99.90
51922;DHT22;37948;53.260;6.394;2023-01-10T01:50:21;5.40;99.90
51922;DHT22;37948;53.260;6.394;2023-01-10T01:52:52;5.40;99.90
51922;DHT22;37948;53.260;6.394;2023-01-10T01:55:19;5.40;99.90
51922;DHT22;37948;53.260;6.394;2023-01-10T01:57:45;5.40;99.90
51922;DHT22;37948;53.260;6.394;2023-01-10T02:00:12;5.40;99.90
51922;DHT22;37948;53.260;6.394;2023-01-10T02:02:43;5.40;99.90
51922;DHT22;37948;53.260;6.394;2023-01-10T02:05:12;5.40;99.90
51922;DHT22;37948;53.260;6.394;2023-01-10T02:07:42;5.50;99.90
51922;DHT22;37948;53.260;6.394;2023-01-10T02:10:12;5.50;99.90
51922;DHT22;37948;53.260;6.394;2023-01-10T02:12:41;5.50;99.90
51922;DHT22;37948;53.260;6.394;2023-01-10T02:15:08;5.60;99.90
51922;DHT22;37948;53.260;6.394;2023-01-10T02:17:34;5.60;99.90
51922;DHT22;37948;53.260;6.394;2023-01-10T02:20:05;5.60;99.90
51922;DHT22;37948;53.260;6.394;2023-01-10T02:39:17;5.60;99.90
51922;DHT22;37948;53.260;6.394;2023-01-10T02:42:07;5.60;99.90
51922;DHT22;37948;53.260;6.394;2023-01-10T02:44:42;5.60;99.90
51922;DHT22;37948;53.260;6.394;2023-01-10T02:47:12;5.50;99.90
51922;DHT22;37948;53.260;6.394;2023-01-10T02:49:46;5.60;99.90
51922;DHT22;37948;53.260;6.394;2023-01-10T02:52:16;5.60;99.90
51922;DHT22;37948;53.260;6.394;2023-01-10T02:54:44;5.60;99.90
51922;DHT22;37948;53.260;6.394;2023-01-10T03:11:08;5.60;99.90
51922;DHT22;37948;53.260;6.394;2023-01-10T03:13:52;5.60;99.90
51922;DHT22;37948;53.260;6.394;2023-01-10T03:16:23;5.60;99.90
51922;DHT22;37948;53.260;6.394;2023-01-10T03:18:58;5.60;99.90
51922;DHT22;37948;53.260;6.394;2023-01-10T03:21:27;5.60;99.90
51922;DHT22;37948;53.260;6.394;2023-01-10T03:23:57;5.60;99.90
51922;DHT22;37948;53.260;6.394;2023-01-10T03:26:30;5.60;99.90
51922;DHT22;37948;53.260;6.394;2023-01-10T03:29:05;5.60;99.90
51922;DHT22;37948;53.260;6.394;2023-01-10T03:31:40;5.60;99.90
51922;DHT22;37948;53.260;6.394;2023-01-10T03:34:07;5.70;99.90
51922;DHT22;37948;53.260;6.394;2023-01-10T03:36:46;5.70;99.90
51922;DHT22;37948;53.260;6.394;2023-01-10T03:44:39;5.70;99.90
51922;DHT22;37948;53.260;6.394;2023-01-10T03:49:40;5.70;99.90
51922;DHT22;37948;53.260;6.394;2023-01-10T03:52:09;5.70;99.90
51922;DHT22;37948;53.260;6.394;2023-01-10T03:54:36;5.80;99.90
51922;DHT22;37948;53.260;6.394;2023-01-10T03:57:02;5.80;99.90
51922;DHT22;37948;53.260;6.394;2023-01-10T03:59:28;5.80;99.90
51922;DHT22;37948;53.260;6.394;2023-01-10T04:01:54;5.80;99.90
51922;DHT22;37948;53.260;6.394;2023-01-10T04:04:21;5.80;99.90
51922;DHT22;37948;53.260;6.394;2023-01-10T04:06:46;5.80;99.90
51922;DHT22;37948;53.260;6.394;2023-01-10T04:09:12;5.80;99.90
51922;DHT22;37948;53.260;6.394;2023-01-10T04:11:38;5.80;99.90
51922;DHT22;37948;53.260;6.394;2023-01-10T04:14:03;5.80;99.90
51922;DHT22;37948;53.260;6.394;2023-01-10T04:16:29;5.80;99.90
51922;DHT22;37948;53.260;6.394;2023-01-10T04:18:55;5.90;99.90
51922;DHT22;37948;53.260;6.394;2023-01-10T04:21:20;5.80;99.90
51922;DHT22;37948;53.260;6.394;2023-01-10T04:23:46;5.90;99.90
51922;DHT22;37948;53.260;6.394;2023-01-10T04:26:12;5.80;99.90
51922;DHT22;37948;53.260;6.394;2023-01-10T04:28:38;5.80;99.90
51922;DHT22;37948;53.260;6.394;2023-01-10T04:31:03;5.80;99.90
51922;DHT22;37948;53.260;6.394;2023-01-10T04:33:29;5.80;99.90
51922;DHT22;37948;53.260;6.394;2023-01-10T04:35:54;5.80;99.90
51922;DHT22;37948;53.260;6.394;2023-01-10T04:38:21;5.70;99.90
51922;DHT22;37948;53.260;6.394;2023-01-10T04:40:53;5.80;99.90
51922;DHT22;37948;53.260;6.394;2023-01-10T04:43:20;5.70;99.90
51922;DHT22;37948;53.260;6.394;2023-01-10T04:45:46;5.70;99.90
51922;DHT22;37948;53.260;6.394;2023-01-10T04:48:11;5.70;99.90
51922;DHT22;37948;53.260;6.394;2023-01-10T04:50:37;5.70;99.90
51922;DHT22;37948;53.260;6.394;2023-01-10T04:53:03;5.70;99.90
51922;DHT22;37948;53.260;6.394;2023-01-10T04:55:28;5.80;99.90
51922;DHT22;37948;53.260;6.394;2023-01-10T04:57:54;5.80;99.90
51922;DHT22;37948;53.260;6.394;2023-01-10T05:00:19;5.80;99.90
51922;DHT22;37948;53.260;6.394;2023-01-10T05:02:45;5.80;99.90
51922;DHT22;37948;53.260;6.394;2023-01-10T05:05:12;5.80;99.90
51922;DHT22;37948;53.260;6.394;2023-01-10T05:07:38;5.80;99.90
51922;DHT22;37948;53.260;6.394;2023-01-10T05:10:05;5.80;99.90
51922;DHT22;37948;53.260;6.394;2023-01-10T05:12:31;5.90;99.90
51922;DHT22;37948;53.260;6.394;2023-01-10T05:14:57;5.80;99.90
51922;DHT22;37948;53.260;6.394;2023-01-10T05:17:22;5.80;99.90
51922;DHT22;37948;53.260;6.394;2023-01-10T05:19:48;5.80;99.90
51922;DHT22;37948;53.260;6.394;2023-01-10T05:22:14;5.80;99.90
51922;DHT22;37948;53.260;6.394;2023-01-10T05:24:40;5.80;99.90
51922;DHT22;37948;53.260;6.394;2023-01-10T05:27:05;5.80;99.90
51922;DHT22;37948;53.260;6.394;2023-01-10T05:29:32;5.80;99.90
51922;DHT22;37948;53.260;6.394;2023-01-10T05:31:58;5.80;99.90
51922;DHT22;37948;53.260;6.394;2023-01-10T05:34:24;5.80;99.90
51922;DHT22;37948;53.260;6.394;2023-01-10T05:36:49;5.90;99.90
51922;DHT22;37948;53.260;6.394;2023-01-10T05:39:15;5.80;99.90
51922;DHT22;37948;53.260;6.394;2023-01-10T05:41:41;5.90;99.90
51922;DHT22;37948;53.260;6.394;2023-01-10T05:44:06;5.90;99.90
51922;DHT22;37948;53.260;6.394;2023-01-10T05:46:32;5.90;99.90
51922;DHT22;37948;53.260;6.394;2023-01-10T05:48:58;5.90;99.90
51922;DHT22;37948;53.260;6.394;2023-01-10T05:51:24;5.90;99.90
51922;DHT22;37948;53.260;6.394;2023-01-10T05:53:49;5.90;99.90
51922;DHT22;37948;53.260;6.394;2023-01-10T05:56:15;5.80;99.90
51922;DHT22;37948;53.260;6.394;2023-01-10T05:58:40;5.80;99.90
51922;DHT22;37948;53.260;6.394;2023-01-10T06:01:06;5.80;99.90
51922;DHT22;37948;53.260;6.394;2023-01-10T06:03:32;5.80;99.90
51922;DHT22;37948;53.260;6.394;2023-01-10T06:05:57;5.80;99.90
51922;DHT22;37948;53.260;6.394;2023-01-10T06:08:23;5.80;99.90
51922;DHT22;37948;53.260;6.394;2023-01-10T06:10:49;5.80;99.90
51922;DHT22;37948;53.260;6.394;2023-01-10T06:13:15;5.70;99.90
51922;DHT22;37948;53.260;6.394;2023-01-10T06:15:41;5.70;99.90
51922;DHT22;37948;53.260;6.394;2023-01-10T06:18:07;5.70;99.90
51922;DHT22;37948;53.260;6.394;2023-01-10T06:20:33;5.60;99.90
51922;DHT22;37948;53.260;6.394;2023-01-10T06:22:59;5.60;99.90
51922;DHT22;37948;53.260;6.394;2023-01-10T06:25:32;5.60;99.90
51922;DHT22;37948;53.260;6.394;2023-01-10T06:28:00;5.60;99.90
51922;DHT22;37948;53.260;6.394;2023-01-10T06:30:25;5.60;99.90
51922;DHT22;37948;53.260;6.394;2023-01-10T06:32:51;5.50;99.90
51922;DHT22;37948;53.260;6.394;2023-01-10T06:35:16;5.50;99.90
51922;DHT22;37948;53.260;6.394;2023-01-10T06:37:43;5.50;99.90
51922;DHT22;37948;53.260;6.394;2023-01-10T06:40:09;5.40;99.90
51922;DHT22;37948;53.260;6.394;2023-01-10T06:42:34;5.40;99.90
51922;DHT22;37948;53.260;6.394;2023-01-10T06:45:00;5.40;99.90
51922;DHT22;37948;53.260;6.394;2023-01-10T06:47:26;5.30;99.90
51922;DHT22;37948;53.260;6.394;2023-01-10T06:49:51;5.20;99.90
51922;DHT22;37948;53.260;6.394;2023-01-10T06:52:17;5.20;99.90
51922;DHT22;37948;53.260;6.394;2023-01-10T06:54:43;5.20;99.90
51922;DHT22;37948;53.260;6.394;2023-01-10T06:57:08;5.20;99.90
51922;DHT22;37948;53.260;6.394;2023-01-10T06:59:34;5.20;99.90
51922;DHT22;37948;53.260;6.394;2023-01-10T07:01:59;5.20;99.90
51922;DHT22;37948;53.260;6.394;2023-01-10T07:04:25;5.20;99.90
51922;DHT22;37948;53.260;6.394;2023-01-10T07:06:52;5.10;99.90
51922;DHT22;37948;53.260;6.394;2023-01-10T07:09:17;5.20;99.90
51922;DHT22;37948;53.260;6.394;2023-01-10T07:11:43;5.20;99.90
51922;DHT22;37948;53.260;6.394;2023-01-10T07:14:09;5.30;99.90
51922;DHT22;37948;53.260;6.394;2023-01-10T07:16:35;5.40;99.90
51922;DHT22;37948;53.260;6.394;2023-01-10T07:19:00;5.40;99.90
51922;DHT22;37948;53.260;6.394;2023-01-10T07:21:27;5.40;99.90
51922;DHT22;37948;53.260;6.394;2023-01-10T07:23:52;5.50;99.90
51922;DHT22;37948;53.260;6.394;2023-01-10T07:26:19;5.50;99.90
51922;DHT22;37948;53.260;6.394;2023-01-10T07:28:47;5.60;99.90
51922;DHT22;37948;53.260;6.394;2023-01-10T07:31:18;5.60;99.90
51922;DHT22;37948;53.260;6.394;2023-01-10T07:33:44;5.60;99.90
51922;DHT22;37948;53.260;6.394;2023-01-10T07:36:09;5.60;99.90
51922;DHT22;37948;53.260;6.394;2023-01-10T07:38:36;5.60;99.90
51922;DHT22;37948;53.260;6.394;2023-01-10T07:41:02;5.60;99.90
51922;DHT22;37948;53.260;6.394;2023-01-10T07:43:29;5.70;99.90
51922;DHT22;37948;53.260;6.394;2023-01-10T07:45:58;5.60;99.90
51922;DHT22;37948;53.260;6.394;2023-01-10T07:48:23;5.60;99.90
51922;DHT22;37948;53.260;6.394;2023-01-10T07:50:49;5.60;99.90
51922;DHT22;37948;53.260;6.394;2023-01-10T07:53:14;5.60;99.90
51922;DHT22;37948;53.260;6.394;2023-01-10T07:55:40;5.60;99.90
51922;DHT22;37948;53.260;6.394;2023-01-10T07:58:07;5.70;99.90
51922;DHT22;37948;53.260;6.394;2023-01-10T08:00:33;5.70;99.90
51922;DHT22;37948;53.260;6.394;2023-01-10T08:02:59;5.70;99.90
51922;DHT22;37948;53.260;6.394;2023-01-10T08:05:25;5.70;99.90
51922;DHT22;37948;53.260;6.394;2023-01-10T08:07:50;5.70;99.90
51922;DHT22;37948;53.260;6.394;2023-01-10T08:10:16;5.70;99.90
51922;DHT22;37948;53.260;6.394;2023-01-10T08:12:42;5.70;99.90
51922;DHT22;37948;53.260;6.394;2023-01-10T08:15:08;5.70;99.90
51922;DHT22;37948;53.260;6.394;2023-01-10T08:17:35;5.70;99.90
51922;DHT22;37948;53.260;6.394;2023-01-10T08:20:02;5.60;99.90
51922;DHT22;37948;53.260;6.394;2023-01-10T08:22:27;5.60;99.90
51922;DHT22;37948;53.260;6.394;2023-01-10T08:24:53;5.60;99.90
51922;DHT22;37948;53.260;6.394;2023-01-10T08:27:18;5.60;99.90
51922;DHT22;37948;53.260;6.394;2023-01-10T08:29:44;5.60;99.90
51922;DHT22;37948;53.260;6.394;2023-01-10T08:32:10;5.50;99.90
51922;DHT22;37948;53.260;6.394;2023-01-10T08:34:36;5.50;99.90
51922;DHT22;37948;53.260;6.394;2023-01-10T08:37:01;5.50;99.90
51922;DHT22;37948;53.260;6.394;2023-01-10T08:39:28;5.50;99.90
51922;DHT22;37948;53.260;6.394;2023-01-10T08:41:55;5.50;99.90
51922;DHT22;37948;53.260;6.394;2023-01-10T08:44:21;5.50;99.90
51922;DHT22;37948;53.260;6.394;2023-01-10T08:46:46;5.50;99.90
51922;DHT22;37948;53.260;6.394;2023-01-10T08:49:12;5.50;99.90
51922;DHT22;37948;53.260;6.394;2023-01-10T08:51:38;5.50;99.90
51922;DHT22;37948;53.260;6.394;2023-01-10T08:54:04;5.50;99.90
51922;DHT22;37948;53.260;6.394;2023-01-10T08:56:30;5.50;99.90
51922;DHT22;37948;53.260;6.394;2023-01-10T08:58:55;5.50;99.90
51922;DHT22;37948;53.260;6.394;2023-01-10T09:01:21;5.60;99.90
51922;DHT22;37948;53.260;6.394;2023-01-10T09:03:46;5.60;99.90
51922;DHT22;37948;53.260;6.394;2023-01-10T09:06:12;5.60;99.90
51922;DHT22;37948;53.260;6.394;2023-01-10T09:08:38;5.70;99.90
51922;DHT22;37948;53.260;6.394;2023-01-10T09:11:04;5.70;99.90
51922;DHT22;37948;53.260;6.394;2023-01-10T09:13:31;5.80;99.90
51922;DHT22;37948;53.260;6.394;2023-01-10T09:15:57;5.90;99.90
51922;DHT22;37948;53.260;6.394;2023-01-10T09:18:23;6.00;99.90
51922;DHT22;37948;53.260;6.394;2023-01-10T09:20:49;6.00;99.90
51922;DHT22;37948;53.260;6.394;2023-01-10T09:23:17;6.00;99.90
51922;DHT22;37948;53.260;6.394;2023-01-10T09:25:45;6.10;99.90
51922;DHT22;37948;53.260;6.394;2023-01-10T09:28:11;6.10;99.90
51922;DHT22;37948;53.260;6.394;2023-01-10T09:30:37;6.10;99.90
51922;DHT22;37948;53.260;6.394;2023-01-10T09:33:04;6.00;99.90
51922;DHT22;37948;53.260;6.394;2023-01-10T09:35:31;6.10;99.90
51922;DHT22;37948;53.260;6.394;2023-01-10T09:37:58;6.10;99.90
51922;DHT22;37948;53.260;6.394;2023-01-10T09:52:19;6.10;99.90
51922;DHT22;37948;53.260;6.394;2023-01-10T09:54:46;6.10;99.90
51922;DHT22;37948;53.260;6.394;2023-01-10T09:57:16;6.10;99.90
51922;DHT22;37948;53.260;6.394;2023-01-10T09:59:43;6.10;99.90
51922;DHT22;37948;53.260;6.394;2023-01-10T10:02:34;6.10;99.90
51922;DHT22;37948;53.260;6.394;2023-01-10T10:05:26;6.10;99.90
51922;DHT22;37948;53.260;6.394;2023-01-10T10:07:58;6.10;99.90
51922;DHT22;37948;53.260;6.394;2023-01-10T10:10:26;6.20;99.90
51922;DHT22;37948;53.260;6.394;2023-01-10T10:15:42;6.20;99.90
51922;DHT22;37948;53.260;6.394;2023-01-10T10:21:27;6.30;99.90
51922;DHT22;37948;53.260;6.394;2023-01-10T10:26:58;6.30;99.90
51922;DHT22;37948;53.260;6.394;2023-01-10T23:08:15;8.10;99.90
51922;DHT22;37948;53.260;6.394;2023-01-10T23:10:41;8.10;99.90
51922;DHT22;37948;53.260;6.394;2023-01-10T23:13:07;8.10;99.90
51922;DHT22;37948;53.260;6.394;2023-01-10T23:15:33;8.20;99.90
51922;DHT22;37948;53.260;6.394;2023-01-10T23:17:59;8.20;99.90
51922;DHT22;37948;53.260;6.394;2023-01-10T23:20:24;8.20;99.90
51922;DHT22;37948;53.260;6.394;2023-01-10T23:22:50;8.30;99.90
51922;DHT22;37948;53.260;6.394;2023-01-10T23:25:16;8.30;99.90
51922;DHT22;37948;53.260;6.394;2023-01-10T23:27:42;8.30;99.90
51922;DHT22;37948;53.260;6.394;2023-01-10T23:30:08;8.30;99.90
51922;DHT22;37948;53.260;6.394;2023-01-10T23:32:35;8.30;99.90
51922;DHT22;37948;53.260;6.394;2023-01-10T23:35:01;8.40;99.90
51922;DHT22;37948;53.260;6.394;2023-01-10T23:37:26;8.40;99.90
51922;DHT22;37948;53.260;6.394;2023-01-10T23:39:52;8.40;99.90
51922;DHT22;37948;53.260;6.394;2023-01-10T23:42:17;8.40;99.90
51922;DHT22;37948;53.260;6.394;2023-01-10T23:44:43;8.40;99.90
51922;DHT22;37948;53.260;6.394;2023-01-10T23:47:09;8.40;99.90
51922;DHT22;37948;53.260;6.394;2023-01-10T23:49:35;8.40;99.90
51922;DHT22;37948;53.260;6.394;2023-01-10T23:52:01;8.40;99.90
51922;DHT22;37948;53.260;6.394;2023-01-10T23:54:27;8.40;99.90
51922;DHT22;37948;53.260;6.394;2023-01-10T23:56:53;8.40;99.90
51922;DHT22;37948;53.260;6.394;2023-01-10T23:59:19;8.40;99.90
